createdAt,value
2022-11-07T00:03:14.183Z,9.83
2022-11-07T00:08:19.863Z,9.85
2022-11-07T00:13:27.031Z,9.84
2022-11-07T00:18:32.942Z,9.84
2022-11-07T00:23:43.204Z,9.90
2022-11-07T00:28:48.850Z,9.96
2022-11-07T00:33:54.510Z,9.94
2022-11-07T00:39:00.318Z,9.94
2022-11-07T00:44:05.833Z,10.00
2022-11-07T00:49:11.791Z,10.01
2022-11-07T00:54:17.258Z,10.03
2022-11-07T00:59:22.786Z,9.97
2022-11-07T01:04:46.714Z,10.04
2022-11-07T01:09:52.316Z,10.02
2022-11-07T01:14:57.965Z,9.99
2022-11-07T01:20:03.413Z,10.01
2022-11-07T01:25:10.080Z,10.00
2022-11-07T01:30:15.523Z,10.03
2022-11-07T01:35:20.981Z,10.00
2022-11-07T01:40:26.443Z,10.04
2022-11-07T01:45:32.826Z,10.07
2022-11-07T01:50:38.338Z,10.12
2022-11-07T01:55:43.856Z,10.06
2022-11-07T02:00:49.451Z,10.15
2022-11-07T02:05:58.325Z,10.16
2022-11-07T02:11:04.914Z,10.16
2022-11-07T02:16:10.847Z,10.21
2022-11-07T02:21:34.526Z,10.18
2022-11-07T02:26:41.852Z,10.22
2022-11-07T02:31:47.295Z,10.24
2022-11-07T02:36:52.758Z,10.27
2022-11-07T02:42:00.553Z,10.30
2022-11-07T02:47:06.138Z,10.36
2022-11-07T02:52:11.726Z,10.33
2022-11-07T02:57:17.253Z,10.38
2022-11-07T03:02:23.017Z,10.44
2022-11-07T03:07:28.691Z,10.44
2022-11-07T03:12:34.217Z,10.34
2022-11-07T03:17:39.740Z,10.36
2022-11-07T03:22:45.618Z,10.41
2022-11-07T03:27:51.739Z,10.48
2022-11-07T03:32:57.737Z,10.37
2022-11-07T03:38:03.190Z,10.45
2022-11-07T03:43:08.636Z,10.52
2022-11-07T03:48:14.098Z,10.53
2022-11-07T03:53:25.043Z,10.52
2022-11-07T03:58:28.000Z,10.52
2022-11-07T04:03:34.401Z,10.60
2022-11-07T04:08:40.324Z,10.57
2022-11-07T04:14:03.961Z,10.57
2022-11-07T04:19:09.491Z,10.58
2022-11-07T04:24:14.938Z,10.56
2022-11-07T04:29:20.402Z,10.60
2022-11-07T04:34:25.785Z,10.65
2022-11-07T04:39:31.180Z,10.63
2022-11-07T04:44:36.981Z,10.66
2022-11-07T04:49:42.436Z,10.67
2022-11-07T04:54:48.019Z,10.69
2022-11-07T04:59:53.466Z,10.68
2022-11-07T05:04:58.861Z,10.58
2022-11-07T05:10:10.905Z,10.59
2022-11-07T05:15:12.798Z,10.77
2022-11-07T05:20:29.857Z,10.76
2022-11-07T05:25:35.304Z,10.69
2022-11-07T05:30:42.725Z,10.58
2022-11-07T05:35:48.442Z,10.63
2022-11-07T05:40:53.985Z,10.55
2022-11-07T05:46:02.946Z,10.67
2022-11-07T05:51:09.355Z,10.71
2022-11-07T05:56:14.819Z,10.65
2022-11-07T06:01:20.340Z,10.71
2022-11-07T06:06:25.758Z,10.68
2022-11-07T06:11:33.083Z,10.72
2022-11-07T06:16:38.610Z,10.76
2022-11-07T06:21:44.057Z,10.71
2022-11-07T06:26:49.444Z,10.68
2022-11-07T06:31:55.068Z,10.66
2022-11-07T06:37:03.303Z,10.63
2022-11-07T06:42:07.744Z,10.59
2022-11-07T06:47:13.269Z,10.59
2022-11-07T06:52:18.808Z,10.64
2022-11-07T06:57:24.325Z,10.70
2022-11-07T07:02:56.961Z,10.79
2022-11-07T07:07:36.992Z,10.88
2022-11-07T07:12:42.816Z,10.99
2022-11-07T07:17:48.273Z,11.06
2022-11-07T07:23:00.140Z,11.14
2022-11-07T07:28:00.946Z,11.17
2022-11-07T07:33:06.706Z,11.22
2022-11-07T07:38:14.604Z,11.38
2022-11-07T07:43:20.151Z,11.47
2022-11-07T07:48:25.645Z,11.50
2022-11-07T07:53:31.100Z,11.57
2022-11-07T07:58:36.938Z,11.72
2022-11-07T08:04:00.199Z,11.85
2022-11-07T08:08:49.548Z,11.98
2022-11-07T08:13:59.754Z,12.06
2022-11-07T08:19:02.151Z,12.12
2022-11-07T08:24:09.351Z,12.19
2022-11-07T08:29:14.804Z,12.20
2022-11-07T08:34:20.324Z,12.21
2022-11-07T08:39:25.802Z,12.32
2022-11-07T08:44:32.955Z,12.38
2022-11-07T08:49:38.482Z,12.52
2022-11-07T08:54:44.026Z,12.64
2022-11-07T08:59:49.540Z,12.60
2022-11-07T09:04:56.047Z,12.77
2022-11-07T09:10:01.430Z,12.75
2022-11-07T09:15:07.684Z,12.94
2022-11-07T09:20:15.429Z,13.08
2022-11-07T09:25:20.872Z,13.21
2022-11-07T09:30:26.250Z,13.21
2022-11-07T09:35:31.786Z,13.33
2022-11-07T09:40:46.027Z,13.44
2022-11-07T09:46:28.459Z,13.42
2022-11-07T09:51:40.187Z,13.82
2022-11-07T09:56:45.902Z,13.57
2022-11-07T10:01:51.562Z,13.50
2022-11-07T10:07:09.311Z,13.55
2022-11-07T10:12:44.159Z,13.65
2022-11-07T10:17:54.503Z,13.64
2022-11-07T10:23:09.370Z,13.71
2022-11-07T10:28:17.478Z,13.78
2022-11-07T10:33:28.530Z,13.68
2022-11-07T10:38:36.188Z,13.69
2022-11-07T10:43:43.195Z,13.71
2022-11-07T10:49:00.459Z,13.60
2022-11-07T10:54:11.065Z,13.70
2022-11-07T10:59:22.205Z,13.84
2022-11-07T11:04:30.801Z,13.95
2022-11-07T11:09:37.509Z,14.02
2022-11-07T11:14:43.139Z,13.92
2022-11-07T11:19:54.658Z,13.87
2022-11-07T11:25:06.101Z,13.90
2022-11-07T11:30:15.106Z,13.88
2022-11-07T11:35:52.228Z,13.99
2022-11-07T11:41:10.331Z,14.06
2022-11-07T11:46:34.243Z,14.02
2022-11-07T11:51:48.237Z,14.17
2022-11-07T11:57:13.382Z,14.47
2022-11-07T12:02:43.087Z,14.79
2022-11-07T12:08:11.396Z,14.92
2022-11-07T12:13:32.374Z,14.89
2022-11-07T12:18:46.305Z,14.95
2022-11-07T12:24:17.666Z,15.04
2022-11-07T12:29:41.262Z,14.97
2022-11-07T12:34:52.745Z,15.12
2022-11-07T12:40:01.188Z,15.07
2022-11-07T12:45:09.643Z,14.98
2022-11-07T12:50:18.149Z,14.94
2022-11-07T12:55:29.525Z,15.09
2022-11-07T13:00:36.919Z,15.34
2022-11-07T13:06:03.482Z,15.27
2022-11-07T13:11:40.026Z,15.31
2022-11-07T13:16:54.735Z,15.25
2022-11-07T13:22:03.005Z,15.31
2022-11-07T13:27:17.553Z,15.20
2022-11-07T13:32:23.150Z,15.18
2022-11-07T13:37:31.609Z,15.16
2022-11-07T13:42:37.660Z,15.09
2022-11-07T13:47:43.693Z,15.08
2022-11-07T13:52:58.013Z,15.07
2022-11-07T13:58:07.061Z,15.07
2022-11-07T14:03:29.548Z,15.06
2022-11-07T14:08:37.971Z,15.00
2022-11-07T14:13:43.772Z,15.00
2022-11-07T14:18:52.517Z,15.07
2022-11-07T14:23:58.886Z,15.08
2022-11-07T14:29:04.917Z,15.10
2022-11-07T14:34:19.160Z,15.15
2022-11-07T14:39:27.009Z,15.13
2022-11-07T14:44:55.184Z,15.00
2022-11-07T14:49:47.660Z,14.95
2022-11-07T14:54:56.200Z,14.96
2022-11-07T15:00:02.278Z,14.88
2022-11-07T15:05:11.293Z,14.93
2022-11-07T15:10:31.499Z,14.96
2022-11-07T15:15:38.248Z,14.91
2022-11-07T15:20:44.029Z,14.88
2022-11-07T15:25:59.827Z,14.86
2022-11-07T15:31:09.031Z,14.88
2022-11-07T15:36:15.876Z,14.85
2022-11-07T15:41:21.848Z,14.80
2022-11-07T15:46:30.375Z,14.78
2022-11-07T15:51:35.845Z,14.77
2022-11-07T15:56:42.377Z,14.79
2022-11-07T16:01:48.681Z,14.85
2022-11-07T16:06:54.715Z,14.94
2022-11-07T16:12:00.412Z,15.00
2022-11-07T16:17:06.044Z,15.03
2022-11-07T16:22:16.236Z,14.98
2022-11-07T16:27:21.779Z,15.62
2022-11-07T16:32:27.436Z,15.18
2022-11-07T16:37:33.210Z,15.12
2022-11-07T16:42:38.895Z,15.01
2022-11-07T16:47:45.217Z,14.95
2022-11-07T16:52:50.636Z,14.93
2022-11-07T16:57:56.677Z,14.91
2022-11-07T17:03:02.224Z,14.92
2022-11-07T17:08:13.940Z,14.88
2022-11-07T17:13:20.377Z,14.85
2022-11-07T17:18:27.972Z,14.82
2022-11-07T17:23:33.568Z,14.79
2022-11-07T17:28:39.086Z,14.79
2022-11-07T17:33:44.998Z,14.72
2022-11-07T17:38:51.471Z,14.66
2022-11-07T17:43:58.612Z,14.61
2022-11-07T17:49:10.020Z,14.54
2022-11-07T17:54:16.692Z,14.50
2022-11-07T17:59:22.921Z,14.53
2022-11-07T18:04:28.629Z,14.49
2022-11-07T18:09:34.462Z,14.51
2022-11-07T18:14:40.129Z,14.55
2022-11-07T18:19:45.758Z,14.57
2022-11-07T18:24:52.363Z,14.60
2022-11-07T18:29:57.851Z,14.61
2022-11-07T18:35:04.810Z,14.62
2022-11-07T18:40:11.829Z,14.68
2022-11-07T18:45:17.363Z,14.70
2022-11-07T18:50:23.027Z,14.69
2022-11-07T18:55:28.582Z,14.69
2022-11-07T19:00:34.661Z,14.76
2022-11-07T19:05:41.364Z,14.74
2022-11-07T19:10:46.966Z,14.74
2022-11-07T19:15:52.594Z,14.77
2022-11-07T19:20:58.250Z,14.73
2022-11-07T19:26:04.381Z,14.71
2022-11-07T19:31:13.036Z,14.73
2022-11-07T19:36:21.461Z,14.68
2022-11-07T19:41:26.920Z,14.66
2022-11-07T19:46:32.544Z,14.68
2022-11-07T19:51:38.160Z,14.63
2022-11-07T19:56:43.856Z,14.59
2022-11-07T20:02:10.480Z,14.58
2022-11-07T20:06:57.170Z,14.53
2022-11-07T20:12:02.700Z,14.45
2022-11-07T20:17:08.240Z,14.44
2022-11-07T20:22:13.941Z,14.48
2022-11-07T20:27:19.463Z,14.39
2022-11-07T20:32:25.035Z,14.42
2022-11-07T20:37:30.533Z,14.39
2022-11-07T20:42:36.742Z,14.43
2022-11-07T20:47:42.342Z,14.39
2022-11-07T20:52:47.960Z,14.22
2022-11-07T20:57:53.605Z,14.16
2022-11-07T21:02:59.361Z,14.10
2022-11-07T21:08:07.084Z,14.01
2022-11-07T21:13:14.616Z,13.99
2022-11-07T21:18:20.623Z,13.96
2022-11-07T21:23:27.049Z,13.97
2022-11-07T21:28:32.506Z,13.97
2022-11-07T21:33:38.925Z,13.97
2022-11-07T21:38:45.223Z,13.94
2022-11-07T21:43:51.156Z,13.91
2022-11-07T21:48:58.445Z,13.86
2022-11-07T21:54:05.011Z,13.85
2022-11-07T21:59:12.286Z,13.82
2022-11-07T22:04:18.052Z,13.79
2022-11-07T22:09:23.573Z,13.77
2022-11-07T22:14:28.971Z,14.14
2022-11-07T22:19:34.478Z,13.86
2022-11-07T22:24:40.232Z,13.76
2022-11-07T22:29:47.089Z,13.66
2022-11-07T22:34:52.544Z,13.58
2022-11-07T22:39:58.167Z,13.53
2022-11-07T22:45:03.693Z,13.48
2022-11-07T22:50:10.167Z,13.40
2022-11-07T22:55:15.701Z,13.40
2022-11-07T23:00:22.189Z,13.32
2022-11-07T23:05:28.033Z,13.29
2022-11-07T23:10:33.627Z,13.26
2022-11-07T23:15:39.073Z,13.21
2022-11-07T23:21:02.470Z,13.15
2022-11-07T23:26:13.711Z,13.13
2022-11-07T23:31:20.224Z,13.10
2022-11-07T23:36:26.061Z,13.05
2022-11-07T23:41:31.521Z,13.07
2022-11-07T23:46:55.406Z,13.03
2022-11-07T23:52:00.962Z,13.03
2022-11-07T23:57:06.488Z,12.98
